AUL294 USSS-UUEE
Flight info
| Callsign | AUL294 |
|---|---|
| Flight time | N/A |
| Altitude | 36000 |
| Route | UMTEK M864 KERUN P164 IDMOR M864 IBROT T535 URIDU L158 DIMGI |
| Aircraft | B738/M-SDE2E3FGHIRWXY/LB1 |
Departure
| Time | 2026-04-30 22:50 |
|---|---|
| Airport | Koltsovo Airport (USSS) |
Arrival
| Time | N/A |
|---|---|
| Airport | Sheremetyevo International Airport (UUEE) |
| Time | Latitude | Longitude | Altitude | Speed | Heading |
|---|---|---|---|---|---|
| 2026-04-30 21:24 | 56.74932 | 60.80047 | 774 ft | 0 kts | 360° |
| 2026-04-30 22:37 | 56.74900 | 60.80047 | 773 ft | 4 kts | 0° |
| 2026-04-30 22:37 | 56.74878 | 60.80047 | 773 ft | 4 kts | 11° |
| 2026-04-30 22:37 | 56.74846 | 60.79997 | 773 ft | 1 kts | 52° |
| 2026-04-30 22:38 | 56.74844 | 60.79993 | 773 ft | 0 kts | 52° |
| 2026-04-30 22:42 | 56.74849 | 60.80009 | 773 ft | 3 kts | 68° |
| 2026-04-30 22:43 | 56.74792 | 60.80132 | 773 ft | 9 kts | 178° |
| 2026-04-30 22:43 | 56.74672 | 60.80101 | 773 ft | 9 kts | 231° |
| 2026-04-30 22:44 | 56.74661 | 60.79889 | 773 ft | 8 kts | 270° |
| 2026-04-30 22:45 | 56.74661 | 60.79381 | 773 ft | 11 kts | 269° |
| 2026-04-30 22:45 | 56.74660 | 60.79121 | 773 ft | 10 kts | 272° |
| 2026-04-30 22:46 | 56.74662 | 60.78873 | 773 ft | 10 kts | 270° |
| 2026-04-30 22:47 | 56.74661 | 60.78296 | 773 ft | 11 kts | 270° |
| 2026-04-30 22:47 | 56.74571 | 60.78150 | 773 ft | 11 kts | 181° |
| 2026-04-30 22:48 | 56.74431 | 60.78139 | 773 ft | 10 kts | 205° |
| 2026-04-30 22:49 | 56.74247 | 60.78004 | 773 ft | 9 kts | 165° |
| 2026-04-30 22:49 | 56.74228 | 60.78071 | 773 ft | 3 kts | 95° |
| 2026-04-30 22:50 | 56.73957 | 60.84247 | 1446 ft | 195 kts | 95° |
| 2026-04-30 22:51 | 56.73740 | 60.89405 | 2605 ft | 214 kts | 93° |
| 2026-04-30 22:51 | 56.73504 | 60.95119 | 3628 ft | 231 kts | 92° |
| 2026-04-30 22:52 | 56.73377 | 60.98049 | 4255 ft | 234 kts | 95° |
| 2026-04-30 22:52 | 56.71497 | 61.02726 | 5494 ft | 246 kts | 155° |
| 2026-04-30 22:53 | 56.68169 | 61.02161 | 6710 ft | 256 kts | 215° |
| 2026-04-30 22:53 | 56.66717 | 60.96517 | 7826 ft | 263 kts | 277° |
| 2026-04-30 22:53 | 56.67377 | 60.93415 | 8393 ft | 263 kts | 308° |
| 2026-04-30 22:54 | 56.69884 | 60.88473 | 9464 ft | 270 kts | 314° |
| 2026-04-30 22:55 | 56.73780 | 60.80695 | 10836 ft | 296 kts | 303° |
| 2026-04-30 22:55 | 56.74869 | 60.73124 | 11215 ft | 332 kts | 275° |
| 2026-04-30 22:56 | 56.75440 | 60.64288 | 11596 ft | 369 kts | 274° |
| 2026-04-30 22:56 | 56.76389 | 60.50118 | 13444 ft | 378 kts | 274° |
| 2026-04-30 22:57 | 56.77042 | 60.40518 | 14667 ft | 386 kts | 274° |
| 2026-04-30 22:57 | 56.77719 | 60.30761 | 15866 ft | 390 kts | 272° |
| 2026-04-30 22:58 | 56.78356 | 60.20839 | 16902 ft | 397 kts | 271° |
| 2026-04-30 22:59 | 56.79335 | 60.05735 | 18776 ft | 393 kts | 270° |
| 2026-04-30 22:59 | 56.80122 | 59.92846 | 20766 ft | 382 kts | 270° |